createdAt,value
2023-05-23T00:04:57.955Z,100895.97
2023-05-23T00:09:54.927Z,100873.09
2023-05-23T00:14:53.014Z,100906.69
2023-05-23T00:19:49.961Z,100907.63
2023-05-23T00:24:47.644Z,100897.75
2023-05-23T00:29:44.726Z,100902.97
2023-05-23T00:34:41.925Z,100870.25
2023-05-23T00:39:38.790Z,100859.88
2023-05-23T00:44:36.675Z,100899.81
2023-05-23T00:49:34.074Z,100897.50
2023-05-23T00:54:34.441Z,100868.00
2023-05-23T00:59:32.182Z,100907.13
2023-05-23T01:04:29.888Z,100887.91
2023-05-23T01:09:28.944Z,100880.28
2023-05-23T01:14:32.805Z,100897.22
2023-05-23T01:19:49.330Z,100883.41
2023-05-23T01:24:55.485Z,100858.41
2023-05-23T01:29:57.681Z,100856.59
2023-05-23T01:34:55.667Z,100845.97
2023-05-23T01:39:52.554Z,100895.44
2023-05-23T01:44:49.761Z,100820.94
2023-05-23T01:49:48.839Z,100903.41
2023-05-23T01:54:48.508Z,100907.56
2023-05-23T01:59:46.261Z,100892.84
2023-05-23T02:04:43.305Z,100870.75
2023-05-23T02:09:41.092Z,100905.91
2023-05-23T02:14:39.118Z,100915.84
2023-05-23T02:19:37.081Z,100859.03
2023-05-23T02:24:34.223Z,100902.78
2023-05-23T02:29:31.849Z,100913.06
2023-05-23T02:34:29.139Z,100911.38
2023-05-23T02:39:27.321Z,100878.63
2023-05-23T02:44:25.448Z,100902.78
2023-05-23T02:49:23.300Z,100911.00
2023-05-23T02:54:21.378Z,100917.16
2023-05-23T02:59:18.415Z,100874.63
2023-05-23T03:04:15.512Z,100917.53
2023-05-23T03:09:15.214Z,100877.88
2023-05-23T03:14:12.296Z,100862.81
2023-05-23T03:19:09.514Z,100929.09
2023-05-23T03:24:06.778Z,100913.41
2023-05-23T03:29:04.369Z,100939.47
2023-05-23T03:34:01.440Z,100945.19
2023-05-23T03:38:58.356Z,100948.91
2023-05-23T03:43:55.349Z,100932.19
2023-05-23T03:48:53.251Z,100900.63
2023-05-23T03:53:50.479Z,100927.13
2023-05-23T03:58:47.976Z,100927.69
2023-05-23T04:03:47.500Z,100901.38
2023-05-23T04:08:46.659Z,100942.13
2023-05-23T04:13:43.833Z,100953.06
2023-05-23T04:18:42.878Z,100948.97
2023-05-23T04:23:40.018Z,100971.56
2023-05-23T04:28:39.626Z,100926.84
2023-05-23T04:33:37.556Z,100983.38
2023-05-23T04:38:40.462Z,100967.84
2023-05-23T04:43:42.157Z,100986.22
2023-05-23T04:48:50.654Z,100943.06
2023-05-23T04:53:50.060Z,100882.00
2023-05-23T04:58:48.753Z,100938.91
2023-05-23T05:03:46.978Z,100988.72
2023-05-23T05:08:44.834Z,100986.75
2023-05-23T05:13:53.661Z,100954.03
2023-05-23T05:18:55.440Z,100959.31
2023-05-23T05:23:54.048Z,100955.00
2023-05-23T05:29:01.653Z,100957.97
2023-05-23T05:34:03.778Z,100972.31
2023-05-23T05:39:11.258Z,100975.59
2023-05-23T05:44:10.381Z,100913.25
2023-05-23T05:49:08.196Z,100983.91
2023-05-23T05:54:07.065Z,100958.91
2023-05-23T05:59:07.807Z,100977.03
2023-05-23T06:04:08.727Z,100984.16
2023-05-23T06:09:06.435Z,100953.81
2023-05-23T06:14:27.872Z,100986.81
2023-05-23T06:19:32.883Z,100928.63
2023-05-23T06:24:30.812Z,100936.63
2023-05-23T06:29:37.590Z,100911.78
2023-05-23T06:34:39.583Z,100972.78
2023-05-23T06:39:44.125Z,100917.00
2023-05-23T06:44:45.529Z,100909.66
2023-05-23T06:49:43.823Z,100905.75
2023-05-23T06:54:41.867Z,100892.94
2023-05-23T06:59:39.477Z,100929.41
2023-05-23T07:04:37.109Z,100957.59
2023-05-23T07:09:43.570Z,100907.19
2023-05-23T07:14:49.293Z,100873.88
2023-05-23T07:19:52.047Z,100902.44
2023-05-23T07:24:51.926Z,100935.56
2023-05-23T07:29:53.249Z,100881.25
2023-05-23T07:34:50.871Z,100915.03
2023-05-23T07:39:48.806Z,100935.78
2023-05-23T07:44:49.732Z,100876.66
2023-05-23T07:49:47.198Z,100885.53
2023-05-23T07:54:45.036Z,100863.84
2023-05-23T07:59:45.466Z,100886.94
2023-05-23T08:04:44.766Z,100906.22
2023-05-23T08:09:43.089Z,100923.75
2023-05-23T08:14:52.122Z,100897.97
2023-05-23T08:20:02.846Z,100847.16
2023-05-23T08:25:17.110Z,100914.06
2023-05-23T08:30:15.715Z,100867.13
2023-05-23T08:35:13.968Z,100858.56
2023-05-23T08:40:18.559Z,100860.00
2023-05-23T08:45:39.521Z,100855.88
2023-05-23T08:50:45.328Z,100824.28
2023-05-23T08:55:51.707Z,100881.09
2023-05-23T09:00:55.816Z,100886.88
2023-05-23T09:06:05.472Z,100804.63
2023-05-23T09:11:03.716Z,100810.38
2023-05-23T09:16:05.708Z,100814.38
2023-05-23T09:21:14.918Z,100878.72
2023-05-23T09:26:38.887Z,100854.09
2023-05-23T09:31:36.033Z,100843.66
2023-05-23T09:36:36.343Z,100765.59
2023-05-23T09:41:34.359Z,100781.66
2023-05-23T09:46:36.291Z,100813.81
2023-05-23T09:51:35.900Z,100872.25
2023-05-23T09:56:38.213Z,100790.34
2023-05-23T10:02:04.041Z,100857.78
2023-05-23T10:07:16.827Z,100849.63
2023-05-23T10:12:47.223Z,100756.88
2023-05-23T10:18:01.157Z,100834.50
2023-05-23T10:23:01.545Z,100793.16
2023-05-23T10:28:09.802Z,100826.31
2023-05-23T10:33:16.323Z,100788.50
2023-05-23T10:38:28.897Z,100753.88
2023-05-23T10:43:35.197Z,100755.72
2023-05-23T10:48:34.810Z,100734.13
2023-05-23T10:53:35.588Z,100786.47
2023-05-23T10:58:36.863Z,100790.19
2023-05-23T11:03:40.637Z,100816.50
2023-05-23T11:08:49.244Z,100794.88
2023-05-23T11:14:02.158Z,100787.75
2023-05-23T11:19:29.698Z,100817.53
2023-05-23T11:24:49.876Z,100704.63
2023-05-23T11:29:58.408Z,100805.75
2023-05-23T11:34:55.421Z,100803.13
2023-05-23T11:39:54.666Z,100750.81
2023-05-23T11:44:52.541Z,100794.06
2023-05-23T11:49:50.163Z,100784.41
2023-05-23T11:54:47.240Z,100774.47
2023-05-23T11:59:45.603Z,100757.59
2023-05-23T12:04:42.559Z,100762.56
2023-05-23T12:09:43.304Z,100741.47
2023-05-23T12:14:45.505Z,100762.03
2023-05-23T12:19:52.920Z,100719.50
2023-05-23T12:24:53.605Z,100760.47
2023-05-23T12:29:53.953Z,100761.56
2023-05-23T12:34:52.521Z,100743.41
2023-05-23T12:39:57.692Z,100744.66
2023-05-23T12:44:55.940Z,100734.34
2023-05-23T12:49:52.952Z,100747.47
2023-05-23T12:55:00.146Z,100680.75
2023-05-23T13:00:02.223Z,100736.53
2023-05-23T13:05:05.941Z,100705.78
2023-05-23T13:10:03.644Z,100703.44
2023-05-23T13:15:02.446Z,100694.25
2023-05-23T13:20:00.741Z,100650.25
2023-05-23T13:24:59.704Z,100730.56
2023-05-23T13:30:00.398Z,100667.28
2023-05-23T13:35:03.564Z,100732.22
2023-05-23T13:40:03.091Z,100622.09
2023-05-23T13:45:07.862Z,100662.34
2023-05-23T13:50:29.074Z,100645.91
2023-05-23T13:55:27.298Z,100721.31
2023-05-23T14:00:44.500Z,100722.88
2023-05-23T14:06:22.026Z,100730.03
2023-05-23T14:11:22.200Z,100690.75
2023-05-23T14:16:19.840Z,100706.41
2023-05-23T14:21:19.921Z,100697.19
2023-05-23T14:26:25.568Z,100720.47
2023-05-23T14:32:16.895Z,100707.31
2023-05-23T14:37:20.224Z,100684.22
2023-05-23T14:42:36.432Z,100624.22
2023-05-23T14:47:34.231Z,100671.38
2023-05-23T14:52:36.483Z,100622.00
2023-05-23T14:57:33.930Z,100647.09
2023-05-23T15:02:31.744Z,100686.59
2023-05-23T15:07:45.736Z,100620.22
2023-05-23T15:12:45.576Z,100702.88
2023-05-23T15:17:44.817Z,100654.34
2023-05-23T15:22:41.978Z,100612.41
2023-05-23T15:27:41.147Z,100703.25
2023-05-23T15:32:40.354Z,100657.53
2023-05-23T15:38:12.139Z,100599.22
2023-05-23T15:43:27.354Z,100658.00
2023-05-23T15:48:26.474Z,100602.34
2023-05-23T15:53:26.065Z,100647.38
2023-05-23T15:58:57.011Z,100678.53
2023-05-23T16:03:56.040Z,100716.19
2023-05-23T16:08:54.089Z,100718.22
2023-05-23T16:13:53.467Z,100703.81
2023-05-23T16:18:50.964Z,100698.53
2023-05-23T16:23:49.354Z,100710.94
2023-05-23T16:28:54.240Z,100699.75
2023-05-23T16:33:51.834Z,100734.56
2023-05-23T16:38:50.446Z,100693.16
2023-05-23T16:43:47.803Z,100752.47
2023-05-23T16:48:45.316Z,100701.56
2023-05-23T16:53:42.168Z,100744.72
2023-05-23T16:58:39.658Z,100692.97
2023-05-23T17:03:37.402Z,100741.00
2023-05-23T17:08:37.784Z,100753.91
2023-05-23T17:13:35.899Z,100746.03
2023-05-23T17:18:34.672Z,100688.88
2023-05-23T17:23:32.016Z,100673.72
2023-05-23T17:28:28.953Z,100748.00
2023-05-23T17:33:25.976Z,100738.72
2023-05-23T17:38:23.972Z,100707.63
2023-05-23T17:43:22.098Z,100708.06
2023-05-23T17:48:23.892Z,100724.00
2023-05-23T17:53:27.000Z,100759.81
2023-05-23T17:58:25.362Z,100689.03
2023-05-23T18:03:23.736Z,100775.72
2023-05-23T18:08:20.865Z,100786.97
2023-05-23T18:13:19.590Z,100769.13
2023-05-23T18:18:17.382Z,100818.81
2023-05-23T18:23:14.694Z,100809.59
2023-05-23T18:28:11.653Z,100763.69
2023-05-23T18:33:09.517Z,100829.41
2023-05-23T18:38:06.859Z,100826.56
2023-05-23T18:43:04.175Z,100801.97
2023-05-23T18:48:01.030Z,100818.72
2023-05-23T18:52:58.676Z,100853.13
2023-05-23T18:57:55.505Z,100815.72
2023-05-23T19:02:52.670Z,100821.56
2023-05-23T19:07:49.845Z,100861.41
2023-05-23T19:12:47.413Z,100860.56
2023-05-23T19:17:44.238Z,100833.38
2023-05-23T19:22:50.806Z,100845.97
2023-05-23T19:27:49.142Z,100816.22
2023-05-23T19:32:46.213Z,100845.34
2023-05-23T19:37:43.279Z,100852.06
2023-05-23T19:42:40.074Z,100841.97
2023-05-23T19:47:37.560Z,100892.41
2023-05-23T19:52:34.508Z,100886.81
2023-05-23T19:57:31.621Z,100893.19
2023-05-23T20:02:28.613Z,100883.47
2023-05-23T20:07:26.272Z,100823.28
2023-05-23T20:12:23.183Z,100850.53
2023-05-23T20:17:19.998Z,100828.59
2023-05-23T20:22:16.895Z,100845.88
2023-05-23T20:27:14.561Z,100856.06
2023-05-23T20:32:11.413Z,100871.38
2023-05-23T20:37:08.611Z,100884.63
2023-05-23T20:42:05.739Z,100813.66
2023-05-23T20:47:03.829Z,100916.78
2023-05-23T20:52:00.729Z,100901.31
2023-05-23T20:56:58.306Z,100907.72
2023-05-23T21:01:55.071Z,100851.22
2023-05-23T21:06:52.561Z,100860.78
2023-05-23T21:11:49.367Z,100877.53
2023-05-23T21:16:46.414Z,100878.69
2023-05-23T21:21:44.163Z,100858.50
2023-05-23T21:26:41.631Z,100913.78
2023-05-23T21:31:41.824Z,100880.84
2023-05-23T21:36:39.033Z,100932.16
2023-05-23T21:41:36.414Z,100930.78
2023-05-23T21:46:34.104Z,100939.38
2023-05-23T21:51:30.866Z,100918.88
2023-05-23T21:56:28.066Z,100938.72
2023-05-23T22:01:24.809Z,100923.88
2023-05-23T22:06:22.252Z,100891.53
2023-05-23T22:11:19.276Z,100945.97
2023-05-23T22:16:16.134Z,100909.56
2023-05-23T22:21:12.995Z,100917.28
2023-05-23T22:26:15.100Z,100835.72
2023-05-23T22:31:18.984Z,100909.41
2023-05-23T22:36:16.045Z,100901.50
2023-05-23T22:41:14.150Z,100904.50
2023-05-23T22:46:11.023Z,100897.03
2023-05-23T22:51:09.064Z,100895.47
2023-05-23T22:56:05.974Z,100900.38
2023-05-23T23:01:03.500Z,100880.44
2023-05-23T23:06:00.324Z,100893.94
2023-05-23T23:10:57.173Z,100885.81
2023-05-23T23:15:54.203Z,100893.53
2023-05-23T23:20:51.644Z,100892.41
2023-05-23T23:25:49.552Z,100883.00
2023-05-23T23:30:46.505Z,100872.16
2023-05-23T23:35:45.776Z,100838.03
2023-05-23T23:40:44.854Z,100852.91
2023-05-23T23:45:41.762Z,100865.28
2023-05-23T23:50:38.530Z,100865.97
2023-05-23T23:55:35.361Z,100804.66
